sensor_id;sensor_type;location;lat;lon;timestamp;P1;durP1;ratioP1;P2;durP2;ratioP2
19006;SDS011;9636;47.382;8.480;2023-08-17T00:00:02;4.18;;;2.30;;
19006;SDS011;9636;47.382;8.480;2023-08-17T00:02:33;4.72;;;2.58;;
19006;SDS011;9636;47.382;8.480;2023-08-17T00:05:00;2.92;;;2.58;;
19006;SDS011;9636;47.382;8.480;2023-08-17T00:07:27;3.80;;;2.42;;
19006;SDS011;9636;47.382;8.480;2023-08-17T00:09:56;3.28;;;2.88;;
19006;SDS011;9636;47.382;8.480;2023-08-17T00:12:23;6.03;;;2.72;;
19006;SDS011;9636;47.382;8.480;2023-08-17T00:14:50;4.03;;;2.58;;
19006;SDS011;9636;47.382;8.480;2023-08-17T00:17:17;3.15;;;2.67;;
19006;SDS011;9636;47.382;8.480;2023-08-17T00:19:45;4.93;;;2.50;;
19006;SDS011;9636;47.382;8.480;2023-08-17T00:22:12;5.38;;;2.97;;
19006;SDS011;9636;47.382;8.480;2023-08-17T00:24:39;3.83;;;2.53;;
19006;SDS011;9636;47.382;8.480;2023-08-17T00:27:09;3.58;;;2.60;;
19006;SDS011;9636;47.382;8.480;2023-08-17T00:29:37;3.10;;;2.20;;
19006;SDS011;9636;47.382;8.480;2023-08-17T00:32:05;3.72;;;2.50;;
19006;SDS011;9636;47.382;8.480;2023-08-17T00:34:32;2.60;;;2.40;;
19006;SDS011;9636;47.382;8.480;2023-08-17T00:36:59;4.03;;;2.47;;
19006;SDS011;9636;47.382;8.480;2023-08-17T00:39:26;2.88;;;2.67;;
19006;SDS011;9636;47.382;8.480;2023-08-17T00:41:55;3.60;;;2.40;;
19006;SDS011;9636;47.382;8.480;2023-08-17T00:44:24;3.63;;;2.80;;
19006;SDS011;9636;47.382;8.480;2023-08-17T00:46:51;2.92;;;2.60;;
19006;SDS011;9636;47.382;8.480;2023-08-17T00:49:18;4.00;;;2.40;;
19006;SDS011;9636;47.382;8.480;2023-08-17T00:51:46;4.72;;;2.70;;
19006;SDS011;9636;47.382;8.480;2023-08-17T00:54:13;4.63;;;2.67;;
19006;SDS011;9636;47.382;8.480;2023-08-17T00:56:42;2.50;;;2.30;;
19006;SDS011;9636;47.382;8.480;2023-08-17T00:59:09;2.58;;;2.38;;
19006;SDS011;9636;47.382;8.480;2023-08-17T01:01:38;5.15;;;2.35;;
19006;SDS011;9636;47.382;8.480;2023-08-17T01:04:06;3.00;;;2.33;;
19006;SDS011;9636;47.382;8.480;2023-08-17T01:06:33;5.93;;;2.80;;
19006;SDS011;9636;47.382;8.480;2023-08-17T01:09:00;3.78;;;2.50;;
19006;SDS011;9636;47.382;8.480;2023-08-17T01:11:28;2.42;;;2.22;;
19006;SDS011;9636;47.382;8.480;2023-08-17T01:14:00;3.35;;;2.60;;
19006;SDS011;9636;47.382;8.480;2023-08-17T01:16:32;3.40;;;2.40;;
19006;SDS011;9636;47.382;8.480;2023-08-17T01:19:06;2.88;;;2.20;;
19006;SDS011;9636;47.382;8.480;2023-08-17T01:21:35;3.08;;;2.60;;
19006;SDS011;9636;47.382;8.480;2023-08-17T01:24:10;3.97;;;2.83;;
19006;SDS011;9636;47.382;8.480;2023-08-17T01:26:37;2.88;;;2.58;;
19006;SDS011;9636;47.382;8.480;2023-08-17T01:29:04;5.45;;;2.38;;
19006;SDS011;9636;47.382;8.480;2023-08-17T01:31:34;5.03;;;2.55;;
19006;SDS011;9636;47.382;8.480;2023-08-17T01:34:08;4.50;;;2.30;;
19006;SDS011;9636;47.382;8.480;2023-08-17T01:36:43;2.63;;;2.42;;
19006;SDS011;9636;47.382;8.480;2023-08-17T01:39:18;2.50;;;2.30;;
19006;SDS011;9636;47.382;8.480;2023-08-17T01:41:50;3.22;;;2.40;;
19006;SDS011;9636;47.382;8.480;2023-08-17T01:44:19;2.85;;;2.30;;
19006;SDS011;9636;47.382;8.480;2023-08-17T01:46:47;3.80;;;2.40;;
19006;SDS011;9636;47.382;8.480;2023-08-17T01:49:15;3.95;;;2.55;;
19006;SDS011;9636;47.382;8.480;2023-08-17T01:51:42;2.53;;;2.33;;
19006;SDS011;9636;47.382;8.480;2023-08-17T01:54:10;4.80;;;2.50;;
19006;SDS011;9636;47.382;8.480;2023-08-17T01:56:38;3.75;;;2.60;;
19006;SDS011;9636;47.382;8.480;2023-08-17T01:59:06;5.90;;;2.90;;
19006;SDS011;9636;47.382;8.480;2023-08-17T02:01:33;4.30;;;2.33;;
19006;SDS011;9636;47.382;8.480;2023-08-17T02:04:00;3.53;;;2.45;;
19006;SDS011;9636;47.382;8.480;2023-08-17T02:06:28;4.72;;;2.50;;
19006;SDS011;9636;47.382;8.480;2023-08-17T02:08:55;3.10;;;2.60;;
19006;SDS011;9636;47.382;8.480;2023-08-17T02:11:22;3.72;;;2.38;;
19006;SDS011;9636;47.382;8.480;2023-08-17T02:13:50;3.05;;;2.30;;
19006;SDS011;9636;47.382;8.480;2023-08-17T02:16:17;2.90;;;2.45;;
19006;SDS011;9636;47.382;8.480;2023-08-17T02:18:45;4.72;;;2.33;;
19006;SDS011;9636;47.382;8.480;2023-08-17T02:21:12;2.63;;;2.40;;
19006;SDS011;9636;47.382;8.480;2023-08-17T02:23:39;3.72;;;2.47;;
19006;SDS011;9636;47.382;8.480;2023-08-17T02:26:06;2.47;;;2.25;;
19006;SDS011;9636;47.382;8.480;2023-08-17T02:28:33;3.63;;;2.40;;
19006;SDS011;9636;47.382;8.480;2023-08-17T02:31:02;4.00;;;2.30;;
19006;SDS011;9636;47.382;8.480;2023-08-17T02:33:29;3.35;;;2.50;;
19006;SDS011;9636;47.382;8.480;2023-08-17T02:35:56;4.50;;;2.90;;
19006;SDS011;9636;47.382;8.480;2023-08-17T02:38:23;3.35;;;2.50;;
19006;SDS011;9636;47.382;8.480;2023-08-17T02:40:51;3.90;;;2.50;;
19006;SDS011;9636;47.382;8.480;2023-08-17T02:43:18;3.08;;;2.50;;
19006;SDS011;9636;47.382;8.480;2023-08-17T02:45:45;6.05;;;2.65;;
19006;SDS011;9636;47.382;8.480;2023-08-17T02:48:15;4.28;;;2.60;;
19006;SDS011;9636;47.382;8.480;2023-08-17T02:50:42;3.10;;;2.47;;
19006;SDS011;9636;47.382;8.480;2023-08-17T02:53:09;3.00;;;2.70;;
19006;SDS011;9636;47.382;8.480;2023-08-17T02:55:36;2.88;;;2.22;;
19006;SDS011;9636;47.382;8.480;2023-08-17T02:58:03;2.42;;;2.15;;
19006;SDS011;9636;47.382;8.480;2023-08-17T03:00:31;5.10;;;2.70;;
19006;SDS011;9636;47.382;8.480;2023-08-17T03:02:58;4.70;;;2.40;;
19006;SDS011;9636;47.382;8.480;2023-08-17T03:05:26;4.68;;;2.42;;
19006;SDS011;9636;47.382;8.480;2023-08-17T03:07:53;5.53;;;2.40;;
19006;SDS011;9636;47.382;8.480;2023-08-17T03:10:20;3.60;;;2.67;;
19006;SDS011;9636;47.382;8.480;2023-08-17T03:12:50;4.18;;;2.40;;
19006;SDS011;9636;47.382;8.480;2023-08-17T03:15:17;4.25;;;2.38;;
19006;SDS011;9636;47.382;8.480;2023-08-17T03:17:44;5.05;;;2.33;;
19006;SDS011;9636;47.382;8.480;2023-08-17T03:20:12;3.33;;;2.47;;
19006;SDS011;9636;47.382;8.480;2023-08-17T03:22:40;4.47;;;2.38;;
19006;SDS011;9636;47.382;8.480;2023-08-17T03:25:08;2.60;;;2.40;;
19006;SDS011;9636;47.382;8.480;2023-08-17T03:27:36;4.80;;;2.75;;
19006;SDS011;9636;47.382;8.480;2023-08-17T03:30:03;4.78;;;2.70;;
19006;SDS011;9636;47.382;8.480;2023-08-17T03:32:32;2.90;;;2.63;;
19006;SDS011;9636;47.382;8.480;2023-08-17T03:34:59;3.58;;;2.40;;
19006;SDS011;9636;47.382;8.480;2023-08-17T03:37:26;2.85;;;2.40;;
19006;SDS011;9636;47.382;8.480;2023-08-17T03:39:55;7.07;;;2.70;;
19006;SDS011;9636;47.382;8.480;2023-08-17T03:42:23;2.90;;;2.63;;
19006;SDS011;9636;47.382;8.480;2023-08-17T03:44:50;4.03;;;3.08;;
19006;SDS011;9636;47.382;8.480;2023-08-17T03:47:17;2.78;;;2.58;;
19006;SDS011;9636;47.382;8.480;2023-08-17T03:49:45;5.10;;;2.80;;
19006;SDS011;9636;47.382;8.480;2023-08-17T03:52:12;2.88;;;2.53;;
19006;SDS011;9636;47.382;8.480;2023-08-17T03:54:39;4.03;;;2.67;;
19006;SDS011;9636;47.382;8.480;2023-08-17T03:57:08;6.72;;;2.92;;
19006;SDS011;9636;47.382;8.480;2023-08-17T03:59:35;4.38;;;2.80;;
19006;SDS011;9636;47.382;8.480;2023-08-17T04:02:03;3.40;;;3.10;;
19006;SDS011;9636;47.382;8.480;2023-08-17T04:04:30;4.10;;;2.60;;
19006;SDS011;9636;47.382;8.480;2023-08-17T04:06:57;9.80;;;3.35;;
19006;SDS011;9636;47.382;8.480;2023-08-17T04:09:25;3.55;;;3.25;;
19006;SDS011;9636;47.382;8.480;2023-08-17T04:11:52;4.57;;;3.13;;
19006;SDS011;9636;47.382;8.480;2023-08-17T04:14:24;5.40;;;2.88;;
19006;SDS011;9636;47.382;8.480;2023-08-17T04:16:51;4.13;;;2.90;;
19006;SDS011;9636;47.382;8.480;2023-08-17T04:19:18;3.28;;;2.90;;
19006;SDS011;9636;47.382;8.480;2023-08-17T04:21:46;4.05;;;2.83;;
19006;SDS011;9636;47.382;8.480;2023-08-17T04:24:13;5.65;;;3.22;;
19006;SDS011;9636;47.382;8.480;2023-08-17T04:26:40;7.05;;;2.97;;
19006;SDS011;9636;47.382;8.480;2023-08-17T04:29:08;5.95;;;3.08;;
19006;SDS011;9636;47.382;8.480;2023-08-17T04:31:36;3.30;;;2.88;;
19006;SDS011;9636;47.382;8.480;2023-08-17T04:34:04;6.72;;;3.20;;
19006;SDS011;9636;47.382;8.480;2023-08-17T04:36:31;7.78;;;3.00;;
19006;SDS011;9636;47.382;8.480;2023-08-17T04:38:58;3.97;;;2.85;;
19006;SDS011;9636;47.382;8.480;2023-08-17T04:41:26;6.68;;;2.75;;
19006;SDS011;9636;47.382;8.480;2023-08-17T04:43:53;3.35;;;2.60;;
19006;SDS011;9636;47.382;8.480;2023-08-17T04:46:20;4.68;;;3.20;;
19006;SDS011;9636;47.382;8.480;2023-08-17T04:48:49;3.08;;;2.75;;
19006;SDS011;9636;47.382;8.480;2023-08-17T04:51:16;3.75;;;2.90;;
19006;SDS011;9636;47.382;8.480;2023-08-17T04:53:43;3.13;;;2.80;;
19006;SDS011;9636;47.382;8.480;2023-08-17T04:56:10;4.85;;;2.97;;
19006;SDS011;9636;47.382;8.480;2023-08-17T04:58:37;3.13;;;2.38;;
19006;SDS011;9636;47.382;8.480;2023-08-17T05:01:06;4.20;;;3.17;;
19006;SDS011;9636;47.382;8.480;2023-08-17T05:03:34;4.82;;;3.10;;
19006;SDS011;9636;47.382;8.480;2023-08-17T05:06:03;5.80;;;2.97;;
19006;SDS011;9636;47.382;8.480;2023-08-17T05:08:30;5.63;;;3.38;;
19006;SDS011;9636;47.382;8.480;2023-08-17T05:10:57;5.38;;;2.60;;
19006;SDS011;9636;47.382;8.480;2023-08-17T05:13:24;4.32;;;2.88;;
19006;SDS011;9636;47.382;8.480;2023-08-17T05:15:51;6.70;;;2.70;;
19006;SDS011;9636;47.382;8.480;2023-08-17T05:18:19;3.33;;;2.63;;
19006;SDS011;9636;47.382;8.480;2023-08-17T05:20:46;6.85;;;2.70;;
19006;SDS011;9636;47.382;8.480;2023-08-17T05:23:15;3.13;;;2.58;;
19006;SDS011;9636;47.382;8.480;2023-08-17T05:25:45;3.97;;;2.60;;
19006;SDS011;9636;47.382;8.480;2023-08-17T05:28:13;4.00;;;3.08;;
19006;SDS011;9636;47.382;8.480;2023-08-17T05:30:41;3.88;;;2.90;;
19006;SDS011;9636;47.382;8.480;2023-08-17T05:33:08;3.70;;;3.10;;
19006;SDS011;9636;47.382;8.480;2023-08-17T05:35:35;3.72;;;2.90;;
19006;SDS011;9636;47.382;8.480;2023-08-17T05:38:03;3.42;;;2.45;;
19006;SDS011;9636;47.382;8.480;2023-08-17T05:40:32;6.00;;;3.17;;
19006;SDS011;9636;47.382;8.480;2023-08-17T05:42:59;3.00;;;2.80;;
19006;SDS011;9636;47.382;8.480;2023-08-17T05:45:27;3.35;;;3.05;;
19006;SDS011;9636;47.382;8.480;2023-08-17T05:47:54;2.80;;;2.60;;
19006;SDS011;9636;47.382;8.480;2023-08-17T05:50:21;3.35;;;3.03;;
19006;SDS011;9636;47.382;8.480;2023-08-17T05:52:51;3.85;;;2.80;;
19006;SDS011;9636;47.382;8.480;2023-08-17T05:55:19;3.53;;;3.20;;
19006;SDS011;9636;47.382;8.480;2023-08-17T05:57:47;5.88;;;3.67;;
19006;SDS011;9636;47.382;8.480;2023-08-17T06:00:14;5.57;;;3.55;;
19006;SDS011;9636;47.382;8.480;2023-08-17T06:02:42;5.70;;;3.67;;
19006;SDS011;9636;47.382;8.480;2023-08-17T06:05:14;4.88;;;3.80;;
19006;SDS011;9636;47.382;8.480;2023-08-17T06:07:41;6.53;;;3.85;;
19006;SDS011;9636;47.382;8.480;2023-08-17T06:10:09;7.65;;;3.92;;
19006;SDS011;9636;47.382;8.480;2023-08-17T06:12:36;4.65;;;3.83;;
19006;SDS011;9636;47.382;8.480;2023-08-17T06:15:06;4.85;;;3.60;;
19006;SDS011;9636;47.382;8.480;2023-08-17T06:17:34;4.47;;;3.40;;
19006;SDS011;9636;47.382;8.480;2023-08-17T06:20:02;7.38;;;3.90;;
19006;SDS011;9636;47.382;8.480;2023-08-17T06:22:30;4.35;;;3.58;;
19006;SDS011;9636;47.382;8.480;2023-08-17T06:24:57;3.97;;;3.58;;
19006;SDS011;9636;47.382;8.480;2023-08-17T06:27:24;6.55;;;3.50;;
19006;SDS011;9636;47.382;8.480;2023-08-17T06:29:51;3.80;;;3.08;;
19006;SDS011;9636;47.382;8.480;2023-08-17T06:32:19;4.10;;;3.60;;
19006;SDS011;9636;47.382;8.480;2023-08-17T06:34:46;7.53;;;3.30;;
19006;SDS011;9636;47.382;8.480;2023-08-17T06:37:14;4.10;;;3.58;;
19006;SDS011;9636;47.382;8.480;2023-08-17T06:39:41;7.38;;;2.97;;
19006;SDS011;9636;47.382;8.480;2023-08-17T06:42:08;5.30;;;3.00;;
19006;SDS011;9636;47.382;8.480;2023-08-17T06:44:35;6.32;;;3.20;;
19006;SDS011;9636;47.382;8.480;2023-08-17T06:47:02;6.68;;;3.33;;
19006;SDS011;9636;47.382;8.480;2023-08-17T06:49:31;3.25;;;2.90;;
19006;SDS011;9636;47.382;8.480;2023-08-17T06:51:58;7.22;;;2.88;;
19006;SDS011;9636;47.382;8.480;2023-08-17T06:54:25;4.75;;;3.00;;
19006;SDS011;9636;47.382;8.480;2023-08-17T06:56:52;4.18;;;3.00;;
19006;SDS011;9636;47.382;8.480;2023-08-17T06:59:19;4.72;;;2.92;;
19006;SDS011;9636;47.382;8.480;2023-08-17T07:01:47;7.25;;;3.20;;
19006;SDS011;9636;47.382;8.480;2023-08-17T07:04:14;4.68;;;3.13;;
19006;SDS011;9636;47.382;8.480;2023-08-17T07:06:43;6.30;;;3.42;;
19006;SDS011;9636;47.382;8.480;2023-08-17T07:09:10;5.80;;;3.30;;
19006;SDS011;9636;47.382;8.480;2023-08-17T07:11:37;7.10;;;3.42;;
19006;SDS011;9636;47.382;8.480;2023-08-17T07:14:04;5.03;;;3.78;;
19006;SDS011;9636;47.382;8.480;2023-08-17T07:16:32;5.00;;;3.50;;
19006;SDS011;9636;47.382;8.480;2023-08-17T07:18:59;8.40;;;3.90;;
19006;SDS011;9636;47.382;8.480;2023-08-17T07:21:26;9.48;;;3.92;;
19006;SDS011;9636;47.382;8.480;2023-08-17T07:23:55;5.78;;;3.80;;
19006;SDS011;9636;47.382;8.480;2023-08-17T07:26:22;5.30;;;3.80;;
19006;SDS011;9636;47.382;8.480;2023-08-17T07:28:49;6.47;;;3.72;;
19006;SDS011;9636;47.382;8.480;2023-08-17T07:31:16;7.60;;;4.38;;
19006;SDS011;9636;47.382;8.480;2023-08-17T07:33:43;5.03;;;3.80;;
19006;SDS011;9636;47.382;8.480;2023-08-17T07:36:10;9.05;;;4.00;;
19006;SDS011;9636;47.382;8.480;2023-08-17T07:38:37;8.13;;;4.00;;
19006;SDS011;9636;47.382;8.480;2023-08-17T07:41:06;5.90;;;3.85;;
19006;SDS011;9636;47.382;8.480;2023-08-17T07:43:33;6.80;;;3.88;;
19006;SDS011;9636;47.382;8.480;2023-08-17T07:46:00;7.22;;;3.40;;
19006;SDS011;9636;47.382;8.480;2023-08-17T07:48:27;9.45;;;4.30;;
19006;SDS011;9636;47.382;8.480;2023-08-17T07:50:58;6.00;;;3.80;;
19006;SDS011;9636;47.382;8.480;2023-08-17T07:53:25;5.43;;;3.72;;
19006;SDS011;9636;47.382;8.480;2023-08-17T07:55:52;6.85;;;3.42;;
19006;SDS011;9636;47.382;8.480;2023-08-17T07:58:21;6.93;;;3.15;;
19006;SDS011;9636;47.382;8.480;2023-08-17T08:00:48;7.50;;;3.92;;
19006;SDS011;9636;47.382;8.480;2023-08-17T08:03:15;6.55;;;3.35;;
19006;SDS011;9636;47.382;8.480;2023-08-17T08:05:42;4.60;;;3.20;;
19006;SDS011;9636;47.382;8.480;2023-08-17T08:08:09;7.32;;;3.47;;
19006;SDS011;9636;47.382;8.480;2023-08-17T08:10:36;5.22;;;3.53;;
19006;SDS011;9636;47.382;8.480;2023-08-17T08:13:03;5.55;;;3.53;;
19006;SDS011;9636;47.382;8.480;2023-08-17T08:15:31;3.88;;;3.17;;
19006;SDS011;9636;47.382;8.480;2023-08-17T08:17:59;9.05;;;3.55;;
19006;SDS011;9636;47.382;8.480;2023-08-17T08:20:26;4.75;;;3.05;;
19006;SDS011;9636;47.382;8.480;2023-08-17T08:22:53;7.97;;;3.40;;
19006;SDS011;9636;47.382;8.480;2023-08-17T08:25:20;4.65;;;3.15;;
19006;SDS011;9636;47.382;8.480;2023-08-17T08:27:47;4.07;;;3.35;;
19006;SDS011;9636;47.382;8.480;2023-08-17T08:30:14;4.00;;;3.28;;
19006;SDS011;9636;47.382;8.480;2023-08-17T08:32:43;5.35;;;3.60;;
19006;SDS011;9636;47.382;8.480;2023-08-17T08:35:10;3.90;;;3.45;;
19006;SDS011;9636;47.382;8.480;2023-08-17T08:37:37;6.40;;;3.42;;
19006;SDS011;9636;47.382;8.480;2023-08-17T08:40:05;4.10;;;3.70;;
19006;SDS011;9636;47.382;8.480;2023-08-17T08:42:37;4.85;;;3.72;;
19006;SDS011;9636;47.382;8.480;2023-08-17T08:45:04;5.40;;;3.72;;
19006;SDS011;9636;47.382;8.480;2023-08-17T08:47:32;6.93;;;3.80;;
19006;SDS011;9636;47.382;8.480;2023-08-17T08:50:04;5.93;;;4.85;;
19006;SDS011;9636;47.382;8.480;2023-08-17T08:52:33;5.78;;;4.90;;
19006;SDS011;9636;47.382;8.480;2023-08-17T08:55:05;11.20;;;4.75;;
19006;SDS011;9636;47.382;8.480;2023-08-17T08:57:37;6.25;;;4.70;;
19006;SDS011;9636;47.382;8.480;2023-08-17T09:00:06;9.73;;;5.35;;
19006;SDS011;9636;47.382;8.480;2023-08-17T09:02:35;8.80;;;5.00;;
19006;SDS011;9636;47.382;8.480;2023-08-17T09:05:04;7.03;;;4.60;;
19006;SDS011;9636;47.382;8.480;2023-08-17T09:07:32;6.68;;;4.55;;
19006;SDS011;9636;47.382;8.480;2023-08-17T09:10:01;6.97;;;4.65;;
19006;SDS011;9636;47.382;8.480;2023-08-17T09:12:29;6.05;;;4.47;;
19006;SDS011;9636;47.382;8.480;2023-08-17T09:14:56;4.97;;;4.47;;
19006;SDS011;9636;47.382;8.480;2023-08-17T09:17:23;6.25;;;5.07;;
19006;SDS011;9636;47.382;8.480;2023-08-17T09:19:51;8.95;;;4.93;;
19006;SDS011;9636;47.382;8.480;2023-08-17T09:22:23;8.55;;;5.55;;
19006;SDS011;9636;47.382;8.480;2023-08-17T09:24:50;7.70;;;4.63;;
19006;SDS011;9636;47.382;8.480;2023-08-17T09:27:18;5.60;;;4.53;;
19006;SDS011;9636;47.382;8.480;2023-08-17T09:29:46;6.05;;;4.90;;
19006;SDS011;9636;47.382;8.480;2023-08-17T09:32:14;7.00;;;5.18;;
19006;SDS011;9636;47.382;8.480;2023-08-17T09:34:42;6.18;;;5.35;;
19006;SDS011;9636;47.382;8.480;2023-08-17T09:37:11;11.60;;;6.28;;
19006;SDS011;9636;47.382;8.480;2023-08-17T09:39:40;7.13;;;5.60;;
19006;SDS011;9636;47.382;8.480;2023-08-17T09:42:07;6.40;;;5.80;;
19006;SDS011;9636;47.382;8.480;2023-08-17T09:44:35;9.20;;;6.13;;
19006;SDS011;9636;47.382;8.480;2023-08-17T09:47:04;11.70;;;6.18;;
19006;SDS011;9636;47.382;8.480;2023-08-17T09:49:32;9.27;;;5.75;;
19006;SDS011;9636;47.382;8.480;2023-08-17T09:51:59;9.90;;;5.85;;
19006;SDS011;9636;47.382;8.480;2023-08-17T09:54:27;8.85;;;6.10;;
19006;SDS011;9636;47.382;8.480;2023-08-17T09:56:59;8.20;;;5.78;;
19006;SDS011;9636;47.382;8.480;2023-08-17T09:59:26;6.32;;;5.72;;
19006;SDS011;9636;47.382;8.480;2023-08-17T10:01:53;6.97;;;5.43;;
19006;SDS011;9636;47.382;8.480;2023-08-17T10:04:22;6.50;;;5.60;;
19006;SDS011;9636;47.382;8.480;2023-08-17T10:06:51;7.57;;;5.72;;
19006;SDS011;9636;47.382;8.480;2023-08-17T10:09:28;7.20;;;5.70;;
19006;SDS011;9636;47.382;8.480;2023-08-17T10:12:01;10.15;;;5.72;;
19006;SDS011;9636;47.382;8.480;2023-08-17T10:14:36;9.30;;;6.43;;
19006;SDS011;9636;47.382;8.480;2023-08-17T10:17:11;11.75;;;6.53;;
19006;SDS011;9636;47.382;8.480;2023-08-17T10:19:46;9.23;;;5.72;;
19006;SDS011;9636;47.382;8.480;2023-08-17T10:22:19;8.55;;;6.32;;
19006;SDS011;9636;47.382;8.480;2023-08-17T10:24:52;8.13;;;6.10;;
19006;SDS011;9636;47.382;8.480;2023-08-17T10:27:21;8.52;;;6.50;;
19006;SDS011;9636;47.382;8.480;2023-08-17T10:29:49;8.07;;;5.82;;
19006;SDS011;9636;47.382;8.480;2023-08-17T10:32:20;8.98;;;6.03;;
19006;SDS011;9636;47.382;8.480;2023-08-17T10:34:51;8.23;;;6.32;;
19006;SDS011;9636;47.382;8.480;2023-08-17T10:37:18;8.95;;;5.93;;
19006;SDS011;9636;47.382;8.480;2023-08-17T10:39:47;8.25;;;6.13;;
19006;SDS011;9636;47.382;8.480;2023-08-17T10:42:14;8.50;;;5.95;;
19006;SDS011;9636;47.382;8.480;2023-08-17T10:44:57;7.82;;;6.35;;
19006;SDS011;9636;47.382;8.480;2023-08-17T10:47:27;8.77;;;5.80;;
19006;SDS011;9636;47.382;8.480;2023-08-17T10:49:57;6.93;;;5.57;;
19006;SDS011;9636;47.382;8.480;2023-08-17T10:52:28;9.30;;;5.65;;
19006;SDS011;9636;47.382;8.480;2023-08-17T10:54:58;9.00;;;5.57;;
19006;SDS011;9636;47.382;8.480;2023-08-17T10:57:29;7.25;;;5.60;;
19006;SDS011;9636;47.382;8.480;2023-08-17T11:00:11;8.65;;;5.78;;
19006;SDS011;9636;47.382;8.480;2023-08-17T11:02:43;6.47;;;5.53;;
19006;SDS011;9636;47.382;8.480;2023-08-17T11:05:11;6.07;;;5.30;;
19006;SDS011;9636;47.382;8.480;2023-08-17T11:07:39;7.40;;;5.57;;
19006;SDS011;9636;47.382;8.480;2023-08-17T11:10:11;7.72;;;5.60;;
19006;SDS011;9636;47.382;8.480;2023-08-17T11:12:40;7.65;;;5.43;;
19006;SDS011;9636;47.382;8.480;2023-08-17T11:15:10;6.47;;;5.13;;
19006;SDS011;9636;47.382;8.480;2023-08-17T11:17:37;6.93;;;5.22;;
19006;SDS011;9636;47.382;8.480;2023-08-17T11:20:04;5.55;;;4.53;;
19006;SDS011;9636;47.382;8.480;2023-08-17T11:22:33;9.45;;;4.70;;
19006;SDS011;9636;47.382;8.480;2023-08-17T11:25:01;5.93;;;4.25;;
19006;SDS011;9636;47.382;8.480;2023-08-17T11:27:30;7.80;;;4.55;;
19006;SDS011;9636;47.382;8.480;2023-08-17T11:29:57;6.07;;;4.25;;
19006;SDS011;9636;47.382;8.480;2023-08-17T11:32:25;5.38;;;4.03;;
19006;SDS011;9636;47.382;8.480;2023-08-17T11:34:52;8.32;;;4.50;;
19006;SDS011;9636;47.382;8.480;2023-08-17T11:37:19;6.38;;;4.55;;
19006;SDS011;9636;47.382;8.480;2023-08-17T11:39:48;7.07;;;4.50;;
19006;SDS011;9636;47.382;8.480;2023-08-17T11:42:15;5.93;;;4.50;;
19006;SDS011;9636;47.382;8.480;2023-08-17T11:44:42;5.88;;;4.65;;
19006;SDS011;9636;47.382;8.480;2023-08-17T11:47:10;5.97;;;4.68;;
19006;SDS011;9636;47.382;8.480;2023-08-17T11:49:38;9.48;;;5.57;;
19006;SDS011;9636;47.382;8.480;2023-08-17T11:52:08;6.68;;;5.40;;
19006;SDS011;9636;47.382;8.480;2023-08-17T11:54:39;7.85;;;5.15;;
19006;SDS011;9636;47.382;8.480;2023-08-17T11:57:06;5.95;;;5.20;;
19006;SDS011;9636;47.382;8.480;2023-08-17T11:59:33;7.10;;;5.25;;
19006;SDS011;9636;47.382;8.480;2023-08-17T12:02:01;7.05;;;5.43;;
19006;SDS011;9636;47.382;8.480;2023-08-17T12:04:28;5.90;;;5.35;;
19006;SDS011;9636;47.382;8.480;2023-08-17T12:06:57;10.52;;;5.40;;
19006;SDS011;9636;47.382;8.480;2023-08-17T12:09:24;8.52;;;5.82;;
19006;SDS011;9636;47.382;8.480;2023-08-17T12:11:54;7.03;;;5.35;;
19006;SDS011;9636;47.382;8.480;2023-08-17T12:14:25;8.38;;;5.30;;
19006;SDS011;9636;47.382;8.480;2023-08-17T12:16:54;10.55;;;5.40;;
19006;SDS011;9636;47.382;8.480;2023-08-17T12:19:21;7.78;;;5.47;;
19006;SDS011;9636;47.382;8.480;2023-08-17T12:21:51;6.57;;;5.72;;
19006;SDS011;9636;47.382;8.480;2023-08-17T12:24:19;7.75;;;5.55;;
19006;SDS011;9636;47.382;8.480;2023-08-17T12:26:49;5.85;;;4.95;;
19006;SDS011;9636;47.382;8.480;2023-08-17T12:29:16;9.55;;;4.68;;
19006;SDS011;9636;47.382;8.480;2023-08-17T12:31:43;8.52;;;4.20;;
19006;SDS011;9636;47.382;8.480;2023-08-17T12:34:11;5.35;;;4.22;;
19006;SDS011;9636;47.382;8.480;2023-08-17T12:36:38;8.18;;;4.18;;
19006;SDS011;9636;47.382;8.480;2023-08-17T12:39:05;5.63;;;4.28;;
19006;SDS011;9636;47.382;8.480;2023-08-17T12:41:34;5.10;;;3.75;;
19006;SDS011;9636;47.382;8.480;2023-08-17T12:44:01;9.43;;;4.55;;
19006;SDS011;9636;47.382;8.480;2023-08-17T12:46:28;4.60;;;3.70;;
19006;SDS011;9636;47.382;8.480;2023-08-17T12:48:57;9.43;;;4.47;;
19006;SDS011;9636;47.382;8.480;2023-08-17T12:51:24;5.25;;;4.00;;
19006;SDS011;9636;47.382;8.480;2023-08-17T12:53:51;5.38;;;3.63;;
19006;SDS011;9636;47.382;8.480;2023-08-17T12:56:18;5.75;;;3.63;;
19006;SDS011;9636;47.382;8.480;2023-08-17T12:58:47;5.05;;;3.63;;
19006;SDS011;9636;47.382;8.480;2023-08-17T13:01:14;6.90;;;3.58;;
19006;SDS011;9636;47.382;8.480;2023-08-17T13:03:41;6.20;;;3.30;;
19006;SDS011;9636;47.382;8.480;2023-08-17T13:06:08;5.72;;;3.70;;
19006;SDS011;9636;47.382;8.480;2023-08-17T13:08:35;5.45;;;3.97;;
19006;SDS011;9636;47.382;8.480;2023-08-17T13:11:02;6.88;;;3.88;;
19006;SDS011;9636;47.382;8.480;2023-08-17T13:13:30;4.88;;;3.83;;
19006;SDS011;9636;47.382;8.480;2023-08-17T13:15:59;9.05;;;3.80;;
19006;SDS011;9636;47.382;8.480;2023-08-17T13:18:26;5.10;;;3.80;;
19006;SDS011;9636;47.382;8.480;2023-08-17T13:20:53;6.55;;;4.13;;
19006;SDS011;9636;47.382;8.480;2023-08-17T13:23:19;5.25;;;3.80;;
19006;SDS011;9636;47.382;8.480;2023-08-17T13:25:47;7.07;;;3.95;;
19006;SDS011;9636;47.382;8.480;2023-08-17T13:28:14;7.35;;;3.90;;
19006;SDS011;9636;47.382;8.480;2023-08-17T13:30:41;8.48;;;3.88;;
19006;SDS011;9636;47.382;8.480;2023-08-17T13:33:10;9.65;;;4.20;;
19006;SDS011;9636;47.382;8.480;2023-08-17T13:35:37;6.32;;;4.00;;
19006;SDS011;9636;47.382;8.480;2023-08-17T13:38:05;4.88;;;3.67;;
19006;SDS011;9636;47.382;8.480;2023-08-17T13:40:32;4.20;;;3.80;;
19006;SDS011;9636;47.382;8.480;2023-08-17T13:42:59;7.22;;;3.83;;
19006;SDS011;9636;47.382;8.480;2023-08-17T13:45:26;8.00;;;3.58;;
19006;SDS011;9636;47.382;8.480;2023-08-17T13:47:53;5.35;;;4.03;;
19006;SDS011;9636;47.382;8.480;2023-08-17T13:50:22;11.13;;;3.33;;
19006;SDS011;9636;47.382;8.480;2023-08-17T13:52:49;6.53;;;3.70;;
19006;SDS011;9636;47.382;8.480;2023-08-17T13:55:16;5.72;;;3.70;;
19006;SDS011;9636;47.382;8.480;2023-08-17T13:57:43;6.88;;;3.25;;
19006;SDS011;9636;47.382;8.480;2023-08-17T14:00:12;4.63;;;3.47;;
19006;SDS011;9636;47.382;8.480;2023-08-17T14:02:39;8.35;;;3.45;;
19006;SDS011;9636;47.382;8.480;2023-08-17T14:05:06;5.60;;;3.40;;
19006;SDS011;9636;47.382;8.480;2023-08-17T14:07:35;7.82;;;3.85;;
19006;SDS011;9636;47.382;8.480;2023-08-17T14:10:02;7.25;;;3.20;;
19006;SDS011;9636;47.382;8.480;2023-08-17T14:12:29;6.70;;;3.60;;
19006;SDS011;9636;47.382;8.480;2023-08-17T14:14:56;5.28;;;3.70;;
19006;SDS011;9636;47.382;8.480;2023-08-17T14:17:23;9.75;;;3.92;;
19006;SDS011;9636;47.382;8.480;2023-08-17T14:19:50;5.93;;;4.00;;
19006;SDS011;9636;47.382;8.480;2023-08-17T14:22:17;8.27;;;4.40;;
19006;SDS011;9636;47.382;8.480;2023-08-17T14:24:46;7.60;;;4.03;;
19006;SDS011;9636;47.382;8.480;2023-08-17T14:27:13;9.05;;;4.20;;
19006;SDS011;9636;47.382;8.480;2023-08-17T14:29:40;5.50;;;4.20;;
19006;SDS011;9636;47.382;8.480;2023-08-17T14:32:06;5.45;;;4.50;;
19006;SDS011;9636;47.382;8.480;2023-08-17T14:34:34;5.05;;;4.55;;
19006;SDS011;9636;47.382;8.480;2023-08-17T14:37:01;6.68;;;4.40;;
19006;SDS011;9636;47.382;8.480;2023-08-17T14:39:28;5.25;;;4.15;;
19006;SDS011;9636;47.382;8.480;2023-08-17T14:41:57;6.47;;;4.50;;
19006;SDS011;9636;47.382;8.480;2023-08-17T14:44:24;7.32;;;4.13;;
19006;SDS011;9636;47.382;8.480;2023-08-17T14:46:51;8.07;;;4.88;;
19006;SDS011;9636;47.382;8.480;2023-08-17T14:49:18;7.20;;;4.53;;
19006;SDS011;9636;47.382;8.480;2023-08-17T14:51:46;4.93;;;4.43;;
19006;SDS011;9636;47.382;8.480;2023-08-17T14:54:13;7.05;;;4.72;;
19006;SDS011;9636;47.382;8.480;2023-08-17T14:56:40;5.85;;;4.40;;
19006;SDS011;9636;47.382;8.480;2023-08-17T14:59:08;8.95;;;4.72;;
19006;SDS011;9636;47.382;8.480;2023-08-17T15:01:35;5.57;;;4.55;;
19006;SDS011;9636;47.382;8.480;2023-08-17T15:04:03;6.90;;;4.20;;